Time;durP1;ratioP1;P1;durP2;ratioP2;P2;SDS_P1;SDS_P2;PMS_P1;PMS_P2;Temp;Humidity;BMP_temperature;BMP_pressure;BME280_temperature;BME280_humidity;BME280_pressure;Samples;Min_cycle;Max_cycle;Signal;HPM_P1;HPM_P2
2023/09/21 00:01:00;;;;;;;14.30;7.40;;;;;;;12.90;76.75;99927.08;130954;1254;108475;-77
2023/09/21 00:04:09;;;;;;;10.30;7.50;;;;;;;12.90;76.69;99923.30;131076;1250;106929;-76
2023/09/21 00:07:15;;;;;;;12.00;7.20;;;;;;;12.91;76.67;99923.11;130982;1256;106288;-77
2023/09/21 00:10:22;;;;;;;10.50;7.00;;;;;;;12.92;76.92;99919.86;131035;1254;107117;-77
2023/09/21 00:13:28;;;;;;;12.00;7.10;;;;;;;12.92;77.02;99917.48;131032;1256;107878;-76
2023/09/21 00:16:34;;;;;;;10.70;6.80;;;;;;;12.92;77.10;99910.06;130942;1256;105893;-77
2023/09/21 00:19:40;;;;;;;10.10;6.30;;;;;;;12.90;77.17;99909.93;130987;1256;107616;-76
2023/09/21 00:22:46;;;;;;;9.80;6.10;;;;;;;12.86;77.42;99908.12;131019;1254;106368;-76
2023/09/21 00:25:55;;;;;;;12.10;6.20;;;;;;;12.85;77.46;99906.52;131003;1256;105536;-76
2023/09/21 00:29:03;;;;;;;8.90;5.90;;;;;;;12.86;77.62;99902.83;131034;1256;107207;-76
2023/09/21 00:32:09;;;;;;;9.80;6.30;;;;;;;12.87;77.67;99903.45;130998;1264;106727;-76
2023/09/21 00:35:18;;;;;;;9.10;5.90;;;;;;;12.88;77.67;99903.56;131008;1251;107610;-76
2023/09/21 00:38:24;;;;;;;9.10;5.80;;;;;;;12.88;77.64;99907.42;130907;1256;107592;-77
2023/09/21 00:41:33;;;;;;;9.20;5.70;;;;;;;12.86;77.80;99903.20;130992;1256;106918;-76
2023/09/21 00:44:40;;;;;;;7.20;5.50;;;;;;;12.85;77.87;99904.07;131105;1256;106901;-79
2023/09/21 00:47:50;;;;;;;9.00;5.90;;;;;;;12.85;78.03;99903.90;131076;1254;106368;-76
2023/09/21 00:50:58;;;;;;;10.10;5.40;;;;;;;12.86;77.98;99906.64;131066;1256;107737;-76
2023/09/21 00:54:07;;;;;;;8.90;5.40;;;;;;;12.87;78.01;99905.05;131079;1250;107880;-76
2023/09/21 00:57:13;;;;;;;8.20;5.30;;;;;;;12.88;78.05;99906.94;131038;1251;107159;-76
2023/09/21 01:00:18;;;;;;;9.80;5.50;;;;;;;12.87;78.22;99906.54;130887;1260;107612;-76
2023/09/21 01:03:27;;;;;;;7.20;4.80;;;;;;;12.85;78.19;99910.33;130968;1254;107300;-76
2023/09/21 01:06:33;;;;;;;8.10;5.00;;;;;;;12.81;78.35;99910.13;130974;1257;106604;-76
2023/09/21 01:09:39;;;;;;;8.80;4.80;;;;;;;12.78;78.43;99907.59;130842;1254;107903;-76
2023/09/21 01:12:49;;;;;;;5.80;4.60;;;;;;;12.77;78.52;99910.34;131072;1251;106533;-76
2023/09/21 01:16:02;;;;;;;6.50;4.90;;;;;;;12.77;78.67;99902.27;131005;1253;107050;-76
2023/09/21 01:19:09;;;;;;;7.90;4.90;;;;;;;12.81;78.71;99902.99;130929;1256;107195;-76
2023/09/21 01:22:15;;;;;;;7.70;5.10;;;;;;;12.82;78.70;99900.36;131071;1253;106779;-76
2023/09/21 01:25:21;;;;;;;7.50;4.80;;;;;;;12.80;78.75;99898.05;130904;1256;106860;-75
2023/09/21 01:28:29;;;;;;;7.80;4.70;;;;;;;12.75;78.79;99897.91;130987;1264;107779;-76
2023/09/21 01:31:35;;;;;;;7.60;4.90;;;;;;;12.73;78.99;99897.95;131011;1251;107152;-76
2023/09/21 01:34:40;;;;;;;7.60;4.60;;;;;;;12.73;78.91;99893.50;131023;1256;107752;-76
2023/09/21 01:37:46;;;;;;;7.20;4.50;;;;;;;12.74;78.87;99891.75;130900;1259;106815;-76
2023/09/21 01:40:52;;;;;;;8.50;4.50;;;;;;;12.76;78.98;99890.48;131012;1251;108673;-76
2023/09/21 01:43:57;;;;;;;6.90;4.80;;;;;;;12.77;78.87;99887.27;131025;1264;106890;-76
2023/09/21 01:47:03;;;;;;;9.60;5.20;;;;;;;12.76;78.97;99886.89;131037;1256;106769;-76
2023/09/21 01:50:14;;;;;;;6.00;4.50;;;;;;;12.74;79.00;99886.23;130988;1256;108664;-76
2023/09/21 01:53:22;;;;;;;6.10;4.50;;;;;;;12.70;79.03;99885.78;130954;1257;108425;-76
2023/09/21 01:56:28;;;;;;;6.30;4.10;;;;;;;12.67;79.15;99886.00;130997;1252;106885;-76
2023/09/21 01:59:33;;;;;;;6.30;3.80;;;;;;;12.65;79.36;99883.46;130927;1256;107273;-76
2023/09/21 02:02:39;;;;;;;5.60;4.00;;;;;;;12.64;79.30;99882.40;131007;1251;106805;-77
2023/09/21 02:05:47;;;;;;;6.90;4.30;;;;;;;12.65;79.25;99881.04;131093;1256;107521;-76
2023/09/21 02:08:52;;;;;;;8.30;4.20;;;;;;;12.66;79.37;99878.23;131090;1256;106968;-76
2023/09/21 02:11:58;;;;;;;8.20;4.60;;;;;;;12.64;79.30;99877.56;131082;1255;107803;-76
2023/09/21 02:15:06;;;;;;;8.90;4.60;;;;;;;12.62;79.16;99876.97;130829;1256;108049;-77
2023/09/21 02:18:12;;;;;;;6.50;4.10;;;;;;;12.54;79.19;99874.57;130875;1256;106592;-76
2023/09/21 02:21:19;;;;;;;6.00;3.90;;;;;;;12.49;79.52;99866.72;130975;1254;105567;-76
2023/09/21 02:24:25;;;;;;;7.10;4.20;;;;;;;12.47;79.48;99871.83;131013;1257;107763;-77
2023/09/21 02:27:34;;;;;;;5.60;3.80;;;;;;;12.44;79.58;99862.54;131051;1257;106381;-77
2023/09/21 02:30:42;;;;;;;6.40;3.90;;;;;;;12.45;79.69;99865.14;131132;1255;105892;-77
2023/09/21 02:33:48;;;;;;;7.00;4.40;;;;;;;12.44;79.65;99860.92;131044;1255;105500;-79
2023/09/21 02:36:55;;;;;;;6.00;4.60;;;;;;;12.44;79.74;99854.67;131064;1256;106382;-81
2023/09/21 02:40:00;;;;;;;6.40;4.50;;;;;;;12.44;79.93;99855.72;131025;1256;108146;-78
2023/09/21 02:43:08;;;;;;;5.40;3.80;;;;;;;12.44;80.02;99853.64;131120;1256;107496;-76
2023/09/21 02:46:14;;;;;;;6.50;4.30;;;;;;;12.45;79.96;99854.44;131606;1255;107689;-76
2023/09/21 02:49:19;;;;;;;5.80;3.90;;;;;;;12.44;79.82;99856.45;130939;1256;106797;-76
2023/09/21 02:52:25;;;;;;;5.10;3.40;;;;;;;12.46;79.86;99850.31;130961;1264;107032;-76
2023/09/21 02:55:31;;;;;;;6.40;4.00;;;;;;;12.48;79.92;99845.16;130922;1256;106444;-77
2023/09/21 02:58:36;;;;;;;5.10;4.30;;;;;;;12.47;79.87;99846.52;131046;1256;108058;-76
2023/09/21 03:01:42;;;;;;;5.30;4.10;;;;;;;12.45;80.13;99841.37;131034;1256;106592;-76
2023/09/21 03:04:51;;;;;;;7.10;4.10;;;;;;;12.44;80.41;99842.58;130894;1256;106674;-76
2023/09/21 03:07:57;;;;;;;6.90;4.20;;;;;;;12.43;80.48;99851.36;130995;1264;106507;-76
2023/09/21 03:11:05;;;;;;;5.00;4.10;;;;;;;12.44;80.44;99850.09;130958;1256;107653;-76
2023/09/21 03:14:11;;;;;;;5.30;3.90;;;;;;;12.44;80.31;99852.36;131068;1252;107297;-76
2023/09/21 03:17:17;;;;;;;4.60;3.70;;;;;;;12.43;80.22;99854.58;130806;1259;106881;-76
2023/09/21 03:20:32;;;;;;;4.70;3.70;;;;;;;12.44;80.30;99851.87;130813;1256;107412;-77
2023/09/21 03:23:39;;;;;;;6.80;4.20;;;;;;;12.41;80.24;99849.47;130981;1263;106965;-76
2023/09/21 03:26:46;;;;;;;6.40;4.20;;;;;;;12.38;80.25;99840.48;130918;1251;107086;-76
2023/09/21 03:29:53;;;;;;;5.70;4.10;;;;;;;12.37;80.31;99838.73;131079;1256;107407;-76
2023/09/21 03:33:00;;;;;;;6.10;4.20;;;;;;;12.37;80.57;99836.75;130979;1255;108201;-76
2023/09/21 03:36:13;;;;;;;11.00;5.30;;;;;;;12.40;80.74;99831.39;131029;1256;106800;-76
2023/09/21 03:39:19;;;;;;;8.20;5.00;;;;;;;12.44;80.81;99827.52;130972;1256;107846;-76
2023/09/21 03:42:27;;;;;;;6.50;4.70;;;;;;;12.47;81.03;99826.70;131033;1265;106983;-76
2023/09/21 03:45:33;;;;;;;6.90;4.70;;;;;;;12.46;80.90;99826.23;130943;1256;107112;-76
2023/09/21 03:48:38;;;;;;;7.20;4.80;;;;;;;12.45;80.80;99824.23;130979;1257;106527;-76
2023/09/21 03:51:47;;;;;;;8.10;4.50;;;;;;;12.44;81.12;99822.43;130953;1264;105948;-77
2023/09/21 03:54:53;;;;;;;5.60;4.40;;;;;;;12.45;81.19;99822.42;130937;1255;108150;-76
2023/09/21 03:57:59;;;;;;;6.90;4.30;;;;;;;12.47;81.17;99824.89;130890;1257;106708;-76
2023/09/21 04:01:09;;;;;;;6.20;4.60;;;;;;;12.47;81.11;99823.42;130924;1262;106949;-76
2023/09/21 04:04:18;;;;;;;5.40;4.20;;;;;;;12.48;81.12;99825.64;131069;1255;107711;-76
2023/09/21 04:07:23;;;;;;;6.10;4.40;;;;;;;12.48;81.19;99824.42;130857;1264;107003;-76
2023/09/21 04:10:30;;;;;;;6.30;4.70;;;;;;;12.47;81.15;99817.80;130965;1264;108003;-76
2023/09/21 04:13:35;;;;;;;7.10;4.40;;;;;;;12.47;81.60;99811.48;130977;1264;108721;-76
2023/09/21 04:16:41;;;;;;;6.00;4.10;;;;;;;12.49;81.68;99812.34;130954;1264;108080;-76
2023/09/21 04:19:47;;;;;;;10.80;7.60;;;;;;;12.53;82.04;99803.02;131069;1254;108794;-76
2023/09/21 04:22:55;;;;;;;6.40;5.20;;;;;;;12.57;82.19;99812.45;130905;1257;108060;-76
2023/09/21 04:26:00;;;;;;;11.40;7.10;;;;;;;12.60;82.17;99808.09;130996;1256;106489;-76
2023/09/21 04:29:08;;;;;;;13.00;8.00;;;;;;;12.62;82.46;99807.71;130875;1256;108870;-73
2023/09/21 04:32:14;;;;;;;21.80;13.20;;;;;;;12.63;82.32;99802.29;130817;1256;107665;-76
2023/09/21 04:35:21;;;;;;;12.30;7.50;;;;;;;12.63;82.36;99805.55;130913;1251;107936;-79
2023/09/21 04:38:27;;;;;;;6.80;5.30;;;;;;;12.66;82.36;99802.56;130981;1256;105972;-78
2023/09/21 04:41:33;;;;;;;7.30;5.10;;;;;;;12.69;82.37;99802.08;130958;1256;106978;-79
2023/09/21 04:44:39;;;;;;;7.90;5.00;;;;;;;12.72;82.36;99796.98;130963;1256;107541;-78
2023/09/21 04:47:47;;;;;;;7.80;5.40;;;;;;;12.75;82.54;99797.75;130965;1256;106378;-78
2023/09/21 04:50:53;;;;;;;6.30;4.50;;;;;;;12.75;82.53;99799.55;130890;1267;107392;-78
2023/09/21 04:53:58;;;;;;;5.90;4.70;;;;;;;12.73;82.59;99797.02;131027;1256;107595;-78
2023/09/21 04:57:04;;;;;;;6.30;4.80;;;;;;;12.78;82.61;99795.48;130904;1257;108592;-79
2023/09/21 05:00:14;;;;;;;5.60;4.10;;;;;;;12.83;82.84;99801.67;130964;1256;106417;-78
2023/09/21 05:03:20;;;;;;;6.20;4.30;;;;;;;12.87;82.86;99796.30;130844;1256;106764;-78
2023/09/21 05:06:26;;;;;;;7.20;5.00;;;;;;;12.92;82.86;99796.08;131014;1257;107529;-79
2023/09/21 05:09:32;;;;;;;6.10;4.30;;;;;;;12.96;82.93;99793.70;130856;1257;108669;-79
2023/09/21 05:12:38;;;;;;;7.10;4.60;;;;;;;13.02;83.14;99797.70;131059;1257;107923;-78
2023/09/21 05:15:45;;;;;;;6.40;4.00;;;;;;;13.08;83.41;99795.34;131001;1264;106614;-79
2023/09/21 05:18:51;;;;;;;5.70;4.30;;;;;;;13.16;83.46;99795.61;130983;1263;107624;-78
2023/09/21 05:21:57;;;;;;;9.50;5.10;;;;;;;13.24;83.56;99795.60;131015;1256;107603;-78
2023/09/21 05:25:03;;;;;;;6.00;5.00;;;;;;;13.33;83.99;99792.59;130996;1256;107676;-78
2023/09/21 05:28:08;;;;;;;6.20;4.80;;;;;;;13.43;84.14;99794.32;131002;1261;106611;-78
2023/09/21 05:31:14;;;;;;;6.20;4.50;;;;;;;13.52;84.07;99786.41;131025;1264;106456;-78
2023/09/21 05:34:20;;;;;;;7.20;4.30;;;;;;;13.64;84.18;99786.99;131066;1264;106254;-79
2023/09/21 05:37:26;;;;;;;5.50;4.20;;;;;;;13.78;84.43;99792.67;130982;1256;106584;-79
2023/09/21 05:40:32;;;;;;;5.10;4.00;;;;;;;13.89;84.53;99789.52;130933;1257;106682;-78
2023/09/21 05:43:39;;;;;;;5.40;3.70;;;;;;;14.00;84.94;99788.39;130920;1257;107603;-78
2023/09/21 05:46:44;;;;;;;4.50;3.90;;;;;;;14.13;84.97;99792.14;130964;1254;106725;-78
2023/09/21 05:49:51;;;;;;;5.50;4.10;;;;;;;14.26;85.06;99789.31;130989;1256;108548;-78
2023/09/21 05:52:58;;;;;;;6.30;4.30;;;;;;;14.39;85.08;99790.95;131005;1264;106806;-78
2023/09/21 05:56:04;;;;;;;7.70;4.20;;;;;;;14.50;85.35;99795.58;131000;1264;108675;-79
2023/09/21 05:59:09;;;;;;;5.20;4.00;;;;;;;14.63;85.38;99793.02;131059;1258;107853;-80
2023/09/21 06:02:15;;;;;;;5.60;4.70;;;;;;;14.75;85.49;99792.52;131035;1255;106422;-78
2023/09/21 06:05:21;;;;;;;6.10;4.40;;;;;;;14.89;85.76;99789.73;131034;1264;107088;-79
2023/09/21 06:08:29;;;;;;;7.80;4.90;;;;;;;15.02;85.51;99784.34;131064;1251;107802;-79
2023/09/21 06:11:35;;;;;;;9.80;4.80;;;;;;;15.13;85.65;99782.79;131023;1251;107925;-78
2023/09/21 06:14:41;;;;;;;5.40;4.10;;;;;;;15.23;85.78;99781.20;131048;1256;107878;-78
2023/09/21 06:17:47;;;;;;;5.10;4.20;;;;;;;15.31;85.81;99781.92;130970;1264;107769;-77
2023/09/21 06:20:55;;;;;;;5.90;4.50;;;;;;;15.42;85.81;99778.45;130947;1256;107565;-78
2023/09/21 06:24:03;;;;;;;5.40;4.50;;;;;;;15.53;85.79;99779.02;130992;1256;107459;-78
2023/09/21 06:27:09;;;;;;;4.80;4.30;;;;;;;15.65;85.72;99778.15;130973;1256;107479;-78
2023/09/21 06:30:16;;;;;;;5.30;4.10;;;;;;;15.76;85.98;99775.90;131071;1256;106747;-78
2023/09/21 06:33:23;;;;;;;5.40;4.20;;;;;;;15.86;85.98;99779.02;131000;1257;106704;-77
2023/09/21 06:36:30;;;;;;;5.70;4.20;;;;;;;15.98;86.07;99782.69;130925;1257;107354;-79
2023/09/21 06:39:35;;;;;;;4.80;4.20;;;;;;;16.10;86.01;99781.45;131004;1257;107509;-78
2023/09/21 06:42:41;;;;;;;5.80;4.70;;;;;;;16.23;86.05;99781.05;131051;1257;108446;-77
2023/09/21 06:45:47;;;;;;;5.30;4.60;;;;;;;16.35;86.02;99784.11;131036;1252;108162;-78
2023/09/21 06:48:54;;;;;;;5.20;4.30;;;;;;;16.44;86.04;99779.46;130936;1257;107679;-77
2023/09/21 06:52:00;;;;;;;5.00;3.90;;;;;;;16.55;86.06;99781.17;131024;1261;106683;-78
2023/09/21 06:55:06;;;;;;;5.80;4.60;;;;;;;16.66;85.92;99782.04;130948;1254;108613;-79
2023/09/21 06:58:12;;;;;;;5.90;4.70;;;;;;;16.79;85.92;99783.34;131042;1257;106915;-77
2023/09/21 07:01:17;;;;;;;5.90;4.50;;;;;;;16.92;85.82;99776.05;130939;1265;107670;-78
2023/09/21 07:04:27;;;;;;;5.80;4.90;;;;;;;17.04;85.73;99775.68;131009;1255;107706;-78
2023/09/21 07:07:33;;;;;;;9.70;4.90;;;;;;;17.15;85.52;99775.93;131014;1258;107632;-79
2023/09/21 07:10:39;;;;;;;5.80;4.50;;;;;;;17.24;85.26;99772.11;131051;1264;106882;-78
2023/09/21 07:13:46;;;;;;;6.50;4.50;;;;;;;17.35;85.24;99777.08;131061;1257;108527;-78
2023/09/21 07:16:52;;;;;;;5.70;3.70;;;;;;;17.47;85.11;99776.58;130930;1252;107673;-78
2023/09/21 07:19:58;;;;;;;4.50;3.70;;;;;;;17.60;84.93;99776.17;131058;1251;106734;-78
2023/09/21 07:23:04;;;;;;;7.00;4.50;;;;;;;17.71;84.69;99773.02;130977;1264;106775;-79
2023/09/21 07:26:09;;;;;;;5.10;4.00;;;;;;;17.81;84.58;99775.16;131001;1263;107704;-78
2023/09/21 07:29:17;;;;;;;4.50;3.50;;;;;;;17.90;84.63;99772.19;131036;1251;107143;-78
2023/09/21 07:32:23;;;;;;;4.80;3.40;;;;;;;17.99;84.55;99769.65;131008;1265;107096;-79
2023/09/21 07:35:30;;;;;;;5.60;3.80;;;;;;;18.09;84.44;99766.79;131013;1260;107357;-78
2023/09/21 07:38:35;;;;;;;5.00;3.50;;;;;;;18.22;84.24;99770.71;130910;1257;106705;-79
2023/09/21 07:41:41;;;;;;;5.90;3.60;;;;;;;18.35;83.97;99768.86;131064;1251;108059;-79
2023/09/21 07:44:48;;;;;;;5.10;3.60;;;;;;;18.46;83.77;99765.23;131063;1251;108807;-78
2023/09/21 07:47:55;;;;;;;4.60;3.50;;;;;;;18.56;83.76;99760.02;131067;1257;107666;-78
2023/09/21 07:51:06;;;;;;;4.70;3.60;;;;;;;18.67;83.77;99755.87;131045;1257;108540;-79
2023/09/21 07:54:12;;;;;;;3.90;3.00;;;;;;;18.77;83.60;99753.55;130997;1254;106648;-80
2023/09/21 07:57:17;;;;;;;4.90;3.40;;;;;;;18.89;83.33;99750.17;131258;1255;107731;-79
2023/09/21 08:00:23;;;;;;;4.80;3.30;;;;;;;19.03;83.11;99748.27;131241;1266;106269;-79
2023/09/21 08:03:35;;;;;;;3.80;2.80;;;;;;;19.17;83.00;99749.73;131087;1254;107605;-80
2023/09/21 08:06:41;;;;;;;3.90;3.00;;;;;;;19.31;82.82;99747.30;131151;1254;107575;-80
2023/09/21 08:09:47;;;;;;;3.70;2.80;;;;;;;19.44;82.57;99745.43;131052;1256;107660;-78
2023/09/21 08:12:53;;;;;;;3.70;2.70;;;;;;;19.55;82.04;99745.15;131057;1251;107493;-80
2023/09/21 08:15:59;;;;;;;3.80;2.60;;;;;;;19.64;82.24;99745.85;131032;1254;109234;-79
2023/09/21 08:19:06;;;;;;;3.40;2.80;;;;;;;19.73;82.20;99740.02;130983;1260;107889;-79
2023/09/21 08:22:12;;;;;;;5.60;2.60;;;;;;;19.86;81.96;99738.42;131095;1257;106612;-79
2023/09/21 08:25:17;;;;;;;2.90;2.60;;;;;;;19.98;81.48;99735.52;130962;1251;106750;-80
2023/09/21 08:28:24;;;;;;;3.60;2.40;;;;;;;20.11;81.03;99734.52;131042;1251;107108;-79
2023/09/21 08:31:30;;;;;;;3.90;2.50;;;;;;;20.24;80.88;99732.06;131027;1254;107065;-79
2023/09/21 08:34:35;;;;;;;5.20;2.80;;;;;;;20.32;80.15;99734.23;130961;1254;107994;-79
2023/09/21 08:37:41;;;;;;;5.30;2.70;;;;;;;20.41;79.65;99728.48;130957;1255;106848;-80
2023/09/21 08:40:53;;;;;;;5.10;2.80;;;;;;;20.48;79.37;99727.81;130981;1254;107647;-79
2023/09/21 08:43:57;;;;;;;;;;;;;;;20.57;79.37;99723.55;131142;1251;106552;-78
2023/09/21 08:47:04;;;;;;;4.10;2.80;;;;;;;20.64;79.18;99723.92;130988;1254;107778;-79
2023/09/21 08:50:13;;;;;;;3.60;2.50;;;;;;;20.70;79.30;99724.71;130949;1264;106452;-79
2023/09/21 08:53:21;;;;;;;4.50;2.90;;;;;;;20.75;78.82;99720.29;131053;1251;107762;-79
2023/09/21 08:56:32;;;;;;;3.50;2.30;;;;;;;20.85;78.36;99720.84;130917;1251;107726;-80
2023/09/21 08:59:42;;;;;;;4.90;2.20;;;;;;;20.97;77.93;99715.39;131123;1256;106642;-80
2023/09/21 09:02:50;;;;;;;3.00;2.30;;;;;;;21.07;77.59;99716.40;131008;1251;106775;-79
2023/09/21 09:05:58;;;;;;;2.50;2.20;;;;;;;21.16;77.61;99712.38;131020;1254;106623;-81
2023/09/21 09:09:05;;;;;;;2.90;2.60;;;;;;;21.25;77.41;99708.50;131010;1257;108309;-81
2023/09/21 09:12:24;;;;;;;3.80;2.20;;;;;;;21.33;76.74;99708.24;131023;1263;107689;-80
2023/09/21 09:15:38;;;;;;;2.90;2.30;;;;;;;21.39;76.41;99701.23;131135;1255;107562;-80
2023/09/21 09:18:46;;;;;;;2.90;2.20;;;;;;;21.45;75.95;99698.88;131093;1254;106936;-80
2023/09/21 09:21:52;;;;;;;4.80;2.50;;;;;;;21.54;75.84;99696.30;131131;1250;108636;-81
2023/09/21 09:24:58;;;;;;;4.80;2.30;;;;;;;21.61;75.52;99698.39;131169;1257;107755;-80
2023/09/21 09:28:04;;;;;;;5.20;2.30;;;;;;;21.69;75.65;99697.76;131072;1257;108701;-80
2023/09/21 09:31:11;;;;;;;2.30;2.10;;;;;;;21.78;75.33;99695.83;131142;1251;109397;-79
2023/09/21 09:34:18;;;;;;;2.40;2.10;;;;;;;21.85;75.03;99693.13;130958;1257;106553;-80
2023/09/21 09:37:25;;;;;;;3.70;2.00;;;;;;;21.90;74.35;99686.88;131000;1264;108824;-79
2023/09/21 09:40:32;;;;;;;3.50;2.00;;;;;;;21.98;73.91;99685.13;130995;1251;106812;-80
2023/09/21 09:43:42;;;;;;;2.60;2.00;;;;;;;22.07;73.63;99679.21;130961;1257;105798;-79
2023/09/21 09:46:50;;;;;;;3.10;2.00;;;;;;;22.14;73.40;99675.23;131010;1254;108357;-81
2023/09/21 09:49:56;;;;;;;2.20;1.90;;;;;;;22.22;73.31;99671.45;131214;1250;106611;-78
2023/09/21 09:53:06;;;;;;;3.00;1.90;;;;;;;22.31;73.34;99672.08;131039;1256;107102;-79
2023/09/21 09:56:14;;;;;;;3.60;2.00;;;;;;;22.38;72.95;99666.33;131062;1254;106722;-79
2023/09/21 11:08:25;;;;;;;2.80;1.50;;;;;;;23.64;66.44;99595.89;127735;1289;648766;-76
2023/09/21 11:11:31;;;;;;;1.90;1.30;;;;;;;23.83;65.65;99595.29;129999;1266;107278;-76
2023/09/21 11:14:37;;;;;;;4.60;1.30;;;;;;;23.87;65.58;99590.54;130089;1266;107275;-77
2023/09/21 11:17:44;;;;;;;2.60;1.40;;;;;;;23.89;65.23;99584.23;130026;1266;108329;-77
2023/09/21 11:20:51;;;;;;;2.70;1.20;;;;;;;23.91;65.06;99585.03;130087;1284;107491;-76
2023/09/21 11:23:57;;;;;;;2.30;1.50;;;;;;;23.91;64.42;99583.27;130073;1264;106894;-77
2023/09/21 11:27:06;;;;;;;3.20;1.60;;;;;;;23.93;64.19;99577.41;130674;1259;106721;-76
2023/09/21 11:30:14;;;;;;;3.00;1.50;;;;;;;23.92;63.61;99576.77;130660;1267;107164;-76
2023/09/21 11:33:20;;;;;;;2.70;1.50;;;;;;;23.95;63.44;99574.86;130648;1260;107831;-76
2023/09/21 11:36:25;;;;;;;1.50;1.40;;;;;;;23.98;62.90;99573.98;130589;1259;108456;-76
2023/09/21 11:39:31;;;;;;;2.20;1.40;;;;;;;24.01;62.80;99569.04;130548;1259;106846;-76
2023/09/21 11:42:37;;;;;;;2.90;1.30;;;;;;;24.03;62.53;99562.36;130518;1254;108278;-76
2023/09/21 11:45:46;;;;;;;2.40;1.30;;;;;;;24.04;62.06;99558.29;130557;1258;106709;-76
2023/09/21 11:48:53;;;;;;;1.70;1.10;;;;;;;24.04;61.38;99560.79;130564;1260;106808;-76
2023/09/21 11:51:59;;;;;;;2.30;1.20;;;;;;;24.07;61.23;99553.55;130534;1260;107189;-76
2023/09/21 11:55:06;;;;;;;2.70;1.30;;;;;;;24.11;60.44;99540.18;130538;1260;107867;-76
2023/09/21 11:58:14;;;;;;;5.30;1.20;;;;;;;24.18;60.87;99538.66;130565;1258;108086;-77
2023/09/21 12:01:22;;;;;;;2.40;1.00;;;;;;;24.19;60.49;99538.41;130553;1260;106740;-77
2023/09/21 12:04:31;;;;;;;3.20;1.30;;;;;;;24.20;60.08;99532.95;130527;1260;108621;-77
2023/09/21 12:07:37;;;;;;;2.10;1.30;;;;;;;24.20;59.98;99523.47;130611;1268;106622;-77
2023/09/21 12:10:45;;;;;;;4.60;1.50;;;;;;;24.25;60.05;99520.72;130555;1254;106502;-77
2023/09/21 12:13:51;;;;;;;2.60;1.30;;;;;;;24.33;59.46;99516.03;130573;1259;106364;-77
2023/09/21 12:17:01;;;;;;;2.30;1.20;;;;;;;24.37;59.10;99511.80;130518;1260;107198;-76
2023/09/21 12:20:17;;;;;;;3.10;1.20;;;;;;;24.38;59.13;99508.05;130558;1277;106691;-76
2023/09/21 12:23:22;;;;;;;2.70;1.50;;;;;;;24.43;58.75;99507.21;130927;1256;106441;-76
2023/09/21 12:26:28;;;;;;;2.40;1.30;;;;;;;24.51;59.20;99508.05;130932;1257;106560;-76
2023/09/21 12:29:34;;;;;;;1.50;1.30;;;;;;;24.63;58.06;99502.79;130933;1264;106470;-76
2023/09/21 12:32:40;;;;;;;2.00;1.30;;;;;;;24.78;58.22;99491.23;130941;1257;107697;-76
2023/09/21 12:35:46;;;;;;;2.40;1.50;;;;;;;24.91;57.79;99498.34;130933;1257;107574;-77
2023/09/21 12:38:52;;;;;;;1.80;1.60;;;;;;;25.03;57.76;99493.96;131496;1257;107992;-77
2023/09/21 12:41:59;;;;;;;3.30;1.70;;;;;;;25.10;57.66;99483.77;131054;1255;106698;-76
2023/09/21 12:45:06;;;;;;;1.90;1.30;;;;;;;25.09;56.98;99473.98;131012;1257;107574;-77
2023/09/21 12:48:13;;;;;;;3.00;1.30;;;;;;;25.09;57.22;99476.55;130991;1251;108653;-77
2023/09/21 12:51:18;;;;;;;2.90;1.50;;;;;;;25.09;56.52;99478.42;131072;1267;107815;-77
2023/09/21 12:54:24;;;;;;;3.50;2.50;;;;;;;25.17;56.55;99479.64;131060;1251;106471;-76
2023/09/21 12:57:31;;;;;;;4.40;1.50;;;;;;;25.25;56.34;99468.13;130948;1257;110085;-76
2023/09/21 13:00:37;;;;;;;3.10;1.40;;;;;;;25.35;56.37;99466.51;130992;1256;107746;-75
2023/09/21 13:03:43;;;;;;;2.90;1.50;;;;;;;25.38;56.23;99459.63;130876;1266;108439;-75
2023/09/21 13:06:50;;;;;;;1.60;1.50;;;;;;;25.35;55.67;99461.21;130967;1262;106906;-77
2023/09/21 13:09:57;;;;;;;2.30;1.40;;;;;;;25.25;55.92;99456.38;131176;1265;107411;-77
2023/09/21 13:13:03;;;;;;;3.30;1.40;;;;;;;25.18;55.17;99453.27;131068;1266;107420;-77
2023/09/21 13:49:20;;;;;;;1.30;1.10;;;;;;;25.02;53.34;99422.49;128242;1281;648929;-76
2023/09/21 13:52:26;;;;;;;2.80;1.10;;;;;;;25.06;52.50;99418.47;130086;1263;209827;-76
2023/09/21 13:55:32;;;;;;;2.00;1.00;;;;;;;25.01;52.63;99414.80;130507;1260;108785;-76
2023/09/21 13:58:38;;;;;;;1.60;1.10;;;;;;;24.95;51.16;99406.17;130759;1261;107596;-76
2023/09/21 14:01:43;;;;;;;1.60;1.00;;;;;;;24.93;52.00;99404.02;130633;1261;107807;-76
2023/09/21 14:04:50;;;;;;;1.60;1.10;;;;;;;24.88;51.66;99400.30;130406;1261;108738;-76
2023/09/21 14:07:55;;;;;;;2.00;0.90;;;;;;;24.83;51.28;99396.90;130339;1263;108568;-76
2023/09/21 14:11:01;;;;;;;2.70;1.20;;;;;;;24.77;51.39;99400.27;130569;1260;108597;-75
2023/09/21 14:14:07;;;;;;;2.30;1.00;;;;;;;24.72;51.13;99390.60;130522;1262;108788;-76
2023/09/21 14:17:12;;;;;;;1.40;1.00;;;;;;;24.72;51.21;99386.77;130825;1263;107754;-79
2023/09/21 14:20:21;;;;;;;1.10;1.00;;;;;;;24.69;50.84;99384.31;131228;1260;106197;-75
2023/09/21 14:23:26;;;;;;;1.80;1.00;;;;;;;24.66;50.98;99385.45;130604;1261;106745;-75
2023/09/21 14:26:32;;;;;;;2.50;1.10;;;;;;;24.63;50.56;99381.40;130409;1263;107620;-72
2023/09/21 14:29:37;;;;;;;1.30;1.00;;;;;;;24.61;50.63;99378.60;130325;1263;108095;-76
2023/09/21 14:32:44;;;;;;;3.30;1.20;;;;;;;24.60;50.54;99371.89;130606;1262;107624;-73
2023/09/21 14:35:50;;;;;;;3.80;1.40;;;;;;;24.56;50.28;99367.41;130850;1260;107414;-77
2023/09/21 14:38:55;;;;;;;2.60;1.30;;;;;;;24.52;50.42;99357.30;130424;1262;106720;-74
2023/09/21 14:42:01;;;;;;;2.00;1.10;;;;;;;24.48;50.48;99363.91;130207;1261;108001;-74
2023/09/21 14:45:09;;;;;;;3.80;1.40;;;;;;;24.44;50.35;99362.85;130222;1262;107895;-74
2023/09/21 14:48:15;;;;;;;2.70;1.60;;;;;;;24.39;50.49;99364.46;131056;1259;107260;-74
2023/09/21 14:51:20;;;;;;;2.80;1.50;;;;;;;24.35;50.59;99365.00;131213;1256;106645;-73
2023/09/21 14:54:26;;;;;;;3.60;1.50;;;;;;;24.33;50.85;99364.33;130895;1254;107154;-75
2023/09/21 14:57:32;;;;;;;3.20;1.60;;;;;;;24.31;51.02;99365.74;130886;1257;107063;-76
2023/09/21 15:00:38;;;;;;;3.40;1.60;;;;;;;24.28;51.35;99364.20;130911;1259;108113;-76
2023/09/21 15:03:44;;;;;;;2.20;1.60;;;;;;;24.26;51.70;99360.98;130784;1257;108686;-74
2023/09/21 15:06:51;;;;;;;4.10;1.80;;;;;;;24.22;51.87;99357.53;130783;1254;107362;-77
2023/09/21 15:09:57;;;;;;;2.80;2.00;;;;;;;24.18;51.97;99357.07;130731;1259;107797;-75
2023/09/21 15:13:03;;;;;;;4.70;2.30;;;;;;;24.14;52.26;99349.20;130688;1259;107489;-75
2023/09/21 15:16:09;;;;;;;2.70;1.80;;;;;;;24.09;52.53;99348.13;130602;1261;106752;-74
2023/09/21 15:19:14;;;;;;;4.60;2.20;;;;;;;24.05;52.69;99347.56;130689;1256;108371;-75
2023/09/21 15:22:20;;;;;;;2.30;2.00;;;;;;;23.98;52.93;99348.84;130668;1259;106585;-75
2023/09/21 15:25:26;;;;;;;4.10;1.90;;;;;;;23.91;52.92;99349.67;130695;1268;106639;-75
2023/09/21 15:28:32;;;;;;;2.70;1.80;;;;;;;23.84;53.06;99352.35;130856;1257;107089;-74
2023/09/21 15:31:38;;;;;;;3.00;1.80;;;;;;;23.76;53.31;99350.59;130884;1257;108572;-76
2023/09/21 15:34:44;;;;;;;2.30;1.80;;;;;;;23.69;53.30;99351.83;131307;1254;107483;-75
2023/09/21 15:37:54;;;;;;;2.30;1.80;;;;;;;23.61;53.21;99357.55;131090;1257;107928;-75
2023/09/21 15:41:00;;;;;;;2.40;1.80;;;;;;;23.53;53.39;99358.73;130706;1261;107376;-75
2023/09/21 15:44:06;;;;;;;3.20;2.00;;;;;;;23.45;53.47;99354.81;130693;1257;107868;-75
2023/09/21 15:47:12;;;;;;;3.00;1.80;;;;;;;23.37;53.52;99354.09;130624;1258;107076;-75
2023/09/21 15:50:17;;;;;;;3.00;2.00;;;;;;;23.30;53.57;99357.90;130579;1259;107462;-75
2023/09/21 15:53:23;;;;;;;3.60;1.80;;;;;;;23.21;53.72;99355.70;130767;1260;107142;-76
2023/09/21 15:56:29;;;;;;;3.70;1.70;;;;;;;23.11;53.87;99353.88;130662;1259;107577;-76
2023/09/21 15:59:36;;;;;;;2.20;2.00;;;;;;;23.02;53.93;99354.69;130758;1256;107513;-75